Time;durP1;ratioP1;P1;durP2;ratioP2;P2;SDS_P1;SDS_P2;PMS_P1;PMS_P2;Temp;Humidity;BMP_temperature;BMP_pressure;BME280_temperature;BME280_humidity;BME280_pressure;Samples;Min_cycle;Max_cycle;Signal;HPM_P1;HPM_P2
2022/07/14 00:00:32;;;;;;;14.45;4.18;;;;;;;;;;5006374;28;20030;-69
2022/07/14 00:02:57;;;;;;;8.03;3.37;;;;;;;;;;4999030;28;20033;-69
2022/07/14 00:05:22;;;;;;;7.53;2.87;;;;;;;;;;5003132;28;20252;-69
2022/07/14 00:07:47;;;;;;;12.98;3.80;;;;;;;;;;4995891;28;20312;-69
2022/07/14 00:10:13;;;;;;;12.37;3.40;;;;;;;;;;5001375;28;20401;-69
2022/07/14 00:12:38;;;;;;;10.60;3.10;;;;;;;;;;4995209;28;20372;-69
2022/07/14 00:15:03;;;;;;;20.97;4.17;;;;;;;;;;4997650;28;20022;-69
2022/07/14 00:17:29;;;;;;;15.02;3.40;;;;;;;;;;4998899;28;20276;-69
2022/07/14 00:19:55;;;;;;;17.75;4.68;;;;;;;;;;4999988;28;20036;-68
2022/07/14 00:22:20;;;;;;;12.57;4.47;;;;;;;;;;4996270;28;20659;-69
2022/07/14 00:24:45;;;;;;;7.13;3.37;;;;;;;;;;4998702;28;20025;-69
2022/07/14 00:27:10;;;;;;;12.17;3.47;;;;;;;;;;5000098;28;20060;-69
2022/07/14 00:29:35;;;;;;;22.47;5.03;;;;;;;;;;4999544;28;20753;-69
2022/07/14 00:32:02;;;;;;;10.60;3.30;;;;;;;;;;4994773;28;20280;-69
2022/07/14 00:34:27;;;;;;;12.98;4.10;;;;;;;;;;5001004;28;20112;-69
2022/07/14 00:36:52;;;;;;;6.30;3.20;;;;;;;;;;4998951;28;20048;-69
2022/07/14 00:39:18;;;;;;;18.73;3.60;;;;;;;;;;4995816;28;20042;-69
2022/07/14 00:41:43;;;;;;;14.20;4.07;;;;;;;;;;4999589;28;20613;-69
2022/07/14 00:44:08;;;;;;;11.93;3.30;;;;;;;;;;4999799;28;20018;-69
2022/07/14 00:46:36;;;;;;;13.67;3.73;;;;;;;;;;5001676;28;20072;-69
2022/07/14 00:49:01;;;;;;;8.75;3.75;;;;;;;;;;4997873;28;20722;-69
2022/07/14 00:51:26;;;;;;;12.10;3.07;;;;;;;;;;5002375;28;20116;-69
2022/07/14 00:53:52;;;;;;;10.77;3.30;;;;;;;;;;4995310;28;20278;-69
2022/07/14 00:56:17;;;;;;;21.52;4.40;;;;;;;;;;5001308;28;20274;-69
2022/07/14 00:58:42;;;;;;;15.85;4.05;;;;;;;;;;5001599;28;20515;-69
2022/07/14 01:01:08;;;;;;;13.15;3.63;;;;;;;;;;5004420;28;20136;-69
2022/07/14 01:03:33;;;;;;;8.10;3.93;;;;;;;;;;5004264;28;20113;-69
2022/07/14 01:05:58;;;;;;;12.80;3.35;;;;;;;;;;5007296;28;20255;-68
2022/07/14 01:08:23;;;;;;;18.17;4.78;;;;;;;;;;5005287;28;20089;-69
2022/07/14 01:10:49;;;;;;;13.50;3.40;;;;;;;;;;5007471;28;20033;-69
2022/07/14 01:13:14;;;;;;;17.30;3.95;;;;;;;;;;5004403;28;20034;-69
2022/07/14 01:15:39;;;;;;;9.00;3.72;;;;;;;;;;5003968;28;21338;-69
2022/07/14 01:18:04;;;;;;;17.08;3.80;;;;;;;;;;5004427;28;20026;-69
2022/07/14 01:20:30;;;;;;;13.10;3.65;;;;;;;;;;5008558;28;20108;-69
2022/07/14 01:22:56;;;;;;;14.60;3.72;;;;;;;;;;5001745;28;20097;-69
2022/07/14 01:25:21;;;;;;;18.15;4.22;;;;;;;;;;5007759;28;20053;-69
2022/07/14 01:27:46;;;;;;;13.85;3.45;;;;;;;;;;5007720;28;20025;-69
2022/07/14 01:30:12;;;;;;;14.98;3.97;;;;;;;;;;5000644;28;20032;-68
2022/07/14 01:32:37;;;;;;;11.55;4.10;;;;;;;;;;5004853;28;20029;-68
2022/07/14 01:35:03;;;;;;;16.80;3.53;;;;;;;;;;5004808;28;20014;-69
2022/07/14 01:37:29;;;;;;;12.43;3.47;;;;;;;;;;5005520;28;20112;-69
2022/07/14 01:39:54;;;;;;;15.27;3.65;;;;;;;;;;5006053;28;20128;-68
2022/07/14 01:42:19;;;;;;;9.38;3.65;;;;;;;;;;5007705;28;20036;-69
2022/07/14 01:44:44;;;;;;;12.73;4.13;;;;;;;;;;5003083;28;20026;-69
2022/07/14 01:47:09;;;;;;;11.90;3.73;;;;;;;;;;5005999;28;20592;-69
2022/07/14 01:49:35;;;;;;;10.18;3.83;;;;;;;;;;5011479;28;20287;-69
2022/07/14 01:52:00;;;;;;;18.27;3.72;;;;;;;;;;5010920;28;20014;-69
2022/07/14 01:54:25;;;;;;;15.43;3.93;;;;;;;;;;5003604;28;20022;-69
2022/07/14 01:56:51;;;;;;;13.20;4.27;;;;;;;;;;5011103;28;20363;-69
2022/07/14 01:59:16;;;;;;;14.80;4.27;;;;;;;;;;5009686;28;20275;-69
2022/07/14 02:01:42;;;;;;;17.05;4.25;;;;;;;;;;5005898;28;20275;-68
2022/07/14 02:04:09;;;;;;;10.70;3.92;;;;;;;;;;5002861;28;20032;-69
2022/07/14 02:06:34;;;;;;;14.88;4.38;;;;;;;;;;5000320;28;20613;-68
2022/07/14 02:08:59;;;;;;;14.47;4.43;;;;;;;;;;5002011;28;20030;-69
2022/07/14 02:14:08;;;;;;;;;;;;;;;;;;5004279;28;20100;-69
2022/07/14 02:16:34;;;;;;;13.23;4.97;;;;;;;;;;5000853;28;19956;-69
2022/07/14 02:18:59;;;;;;;10.07;3.92;;;;;;;;;;4997142;28;20512;-69
2022/07/14 02:21:25;;;;;;;11.38;4.03;;;;;;;;;;5002182;28;20061;-69
2022/07/14 02:23:50;;;;;;;17.30;4.68;;;;;;;;;;4998566;28;20439;-70
2022/07/14 02:26:15;;;;;;;10.13;3.85;;;;;;;;;;5000437;28;20065;-69
2022/07/14 02:28:41;;;;;;;9.77;3.53;;;;;;;;;;5002982;28;20136;-69
2022/07/14 02:31:09;;;;;;;15.93;4.68;;;;;;;;;;5004123;28;20129;-69
2022/07/14 02:33:35;;;;;;;12.10;3.80;;;;;;;;;;4995301;28;20033;-69
2022/07/14 02:36:00;;;;;;;12.32;3.53;;;;;;;;;;5000933;28;20022;-69
2022/07/14 02:38:25;;;;;;;14.20;4.03;;;;;;;;;;5001293;28;20113;-72
2022/07/14 02:40:50;;;;;;;7.10;3.83;;;;;;;;;;4998921;28;20279;-69
2022/07/14 02:43:15;;;;;;;24.95;4.13;;;;;;;;;;5000742;28;20084;-69
2022/07/14 02:45:41;;;;;;;11.67;4.10;;;;;;;;;;4997269;28;20117;-69
2022/07/14 02:48:06;;;;;;;15.67;5.03;;;;;;;;;;5008369;28;20099;-69
2022/07/14 02:50:31;;;;;;;10.60;4.20;;;;;;;;;;5006811;28;20040;-69
2022/07/14 02:52:57;;;;;;;13.23;4.15;;;;;;;;;;5000836;28;20101;-69
2022/07/14 02:55:22;;;;;;;12.63;4.32;;;;;;;;;;5000766;28;20088;-69
2022/07/14 02:57:47;;;;;;;15.73;4.20;;;;;;;;;;5008781;28;20022;-69
2022/07/14 03:00:13;;;;;;;9.13;3.80;;;;;;;;;;5006905;28;20427;-69
2022/07/14 03:02:38;;;;;;;8.90;4.15;;;;;;;;;;5002734;28;20275;-69
2022/07/14 03:05:04;;;;;;;6.90;3.60;;;;;;;;;;5001899;28;20040;-69
2022/07/14 03:07:29;;;;;;;11.82;3.80;;;;;;;;;;5001022;28;20278;-69
2022/07/14 03:09:54;;;;;;;13.70;4.17;;;;;;;;;;4998360;28;20467;-69
2022/07/14 03:12:19;;;;;;;5.45;3.50;;;;;;;;;;4996073;28;20155;-72
2022/07/14 03:14:45;;;;;;;7.43;4.00;;;;;;;;;;5001683;28;20527;-69
2022/07/14 03:17:10;;;;;;;11.10;4.38;;;;;;;;;;4997231;28;20022;-71
2022/07/14 03:19:35;;;;;;;12.13;4.57;;;;;;;;;;5001900;28;20036;-69
2022/07/14 03:22:01;;;;;;;7.45;3.97;;;;;;;;;;4999055;28;20096;-69
2022/07/14 03:24:26;;;;;;;9.43;4.25;;;;;;;;;;4999083;28;20028;-69
2022/07/14 03:26:51;;;;;;;13.30;4.00;;;;;;;;;;5001634;28;20095;-71
2022/07/14 03:29:16;;;;;;;9.07;4.07;;;;;;;;;;5001241;28;22083;-71
2022/07/14 03:31:42;;;;;;;8.05;3.78;;;;;;;;;;5001219;28;20741;-69
2022/07/14 03:34:07;;;;;;;11.27;4.10;;;;;;;;;;4996729;28;20474;-69
2022/07/14 03:36:32;;;;;;;8.70;3.88;;;;;;;;;;5000519;28;20271;-71
2022/07/14 03:38:57;;;;;;;14.40;3.87;;;;;;;;;;4997779;28;20030;-69
2022/07/14 03:41:22;;;;;;;13.77;4.13;;;;;;;;;;4999243;28;20013;-69
2022/07/14 03:43:48;;;;;;;13.35;3.95;;;;;;;;;;4999656;28;20026;-71
2022/07/14 03:46:13;;;;;;;12.10;3.75;;;;;;;;;;4997160;28;20084;-71
2022/07/14 03:48:38;;;;;;;9.88;4.60;;;;;;;;;;5000487;28;20097;-69
2022/07/14 03:51:04;;;;;;;11.43;4.35;;;;;;;;;;5001194;28;20026;-71
2022/07/14 03:53:32;;;;;;;10.02;4.28;;;;;;;;;;4997096;28;20010;-71
2022/07/14 03:55:58;;;;;;;9.27;4.88;;;;;;;;;;4999391;28;20076;-71
2022/07/14 03:58:24;;;;;;;11.52;4.40;;;;;;;;;;5000206;28;20038;-70
2022/07/14 04:00:49;;;;;;;9.75;4.82;;;;;;;;;;5000164;28;20022;-70
2022/07/14 04:03:14;;;;;;;6.28;3.67;;;;;;;;;;4998370;28;20657;-70
2022/07/14 04:05:39;;;;;;;8.63;4.23;;;;;;;;;;4997881;28;20058;-71
2022/07/14 04:08:05;;;;;;;6.80;4.03;;;;;;;;;;4999767;28;20279;-70
2022/07/14 04:10:30;;;;;;;9.17;3.87;;;;;;;;;;5004565;28;20729;-71
2022/07/14 04:12:56;;;;;;;8.88;4.40;;;;;;;;;;5005498;28;20060;-71
2022/07/14 04:15:21;;;;;;;8.73;3.90;;;;;;;;;;5000798;28;20368;-71
2022/07/14 04:17:46;;;;;;;9.68;4.15;;;;;;;;;;4998496;28;20018;-71
2022/07/14 04:20:12;;;;;;;10.18;4.47;;;;;;;;;;5004733;28;20053;-71
2022/07/14 04:22:37;;;;;;;8.20;4.07;;;;;;;;;;5002471;28;20038;-71
2022/07/14 04:25:02;;;;;;;11.82;4.68;;;;;;;;;;5000871;28;20026;-70
2022/07/14 04:27:27;;;;;;;12.57;4.85;;;;;;;;;;5003750;28;20041;-70
2022/07/14 04:29:53;;;;;;;11.82;3.63;;;;;;;;;;5002505;28;20023;-71
2022/07/14 04:32:18;;;;;;;7.05;4.03;;;;;;;;;;4998224;28;20026;-70
2022/07/14 04:34:44;;;;;;;9.15;4.07;;;;;;;;;;5001284;28;20450;-70
2022/07/14 04:37:09;;;;;;;10.82;3.90;;;;;;;;;;4997175;28;20428;-70
2022/07/14 04:39:34;;;;;;;13.95;4.40;;;;;;;;;;4999037;28;20440;-70
2022/07/14 04:41:59;;;;;;;12.30;4.30;;;;;;;;;;4997682;28;20029;-70
2022/07/14 04:44:24;;;;;;;16.77;4.57;;;;;;;;;;5000553;28;20275;-70
2022/07/14 04:46:50;;;;;;;12.75;4.65;;;;;;;;;;5003315;28;20271;-70
2022/07/14 04:52:02;;;;;;;14.27;3.83;;;;;;;;;;4998907;28;20024;-70
2022/07/14 04:54:27;;;;;;;10.43;4.68;;;;;;;;;;5000146;28;20479;-70
2022/07/14 04:56:53;;;;;;;12.23;4.57;;;;;;;;;;5005009;28;20033;-70
2022/07/14 04:59:18;;;;;;;13.67;4.20;;;;;;;;;;5000527;28;20030;-70
2022/07/14 05:01:43;;;;;;;14.23;4.22;;;;;;;;;;5001187;28;20271;-70
2022/07/14 05:04:08;;;;;;;11.20;5.20;;;;;;;;;;4999803;28;20022;-70
2022/07/14 05:06:33;;;;;;;14.30;5.43;;;;;;;;;;5001663;28;20267;-70
2022/07/14 05:08:58;;;;;;;13.07;5.27;;;;;;;;;;5000757;28;20283;-70
2022/07/14 05:11:24;;;;;;;8.43;4.50;;;;;;;;;;5002384;28;20508;-70
2022/07/14 05:13:50;;;;;;;14.63;5.33;;;;;;;;;;4996907;28;20435;-71
2022/07/14 05:16:16;;;;;;;10.38;4.72;;;;;;;;;;4995616;28;20487;-71
2022/07/14 05:18:41;;;;;;;12.40;5.43;;;;;;;;;;5004410;28;20049;-70
2022/07/14 05:21:07;;;;;;;14.82;5.25;;;;;;;;;;5003742;28;20267;-71
2022/07/14 05:23:33;;;;;;;17.23;5.82;;;;;;;;;;5003811;28;20103;-71
2022/07/14 05:25:58;;;;;;;19.52;6.00;;;;;;;;;;5002483;28;20485;-71
2022/07/14 05:28:23;;;;;;;18.98;5.97;;;;;;;;;;4997444;28;20109;-71
2022/07/14 05:30:49;;;;;;;17.00;6.05;;;;;;;;;;5000311;28;20037;-71
2022/07/14 05:33:14;;;;;;;23.00;6.67;;;;;;;;;;4996152;28;20157;-71
2022/07/14 05:35:39;;;;;;;19.33;5.28;;;;;;;;;;4994733;28;20722;-71
2022/07/14 05:38:04;;;;;;;23.17;5.55;;;;;;;;;;4995778;28;20161;-70
2022/07/14 05:40:30;;;;;;;19.10;5.75;;;;;;;;;;5001414;28;20055;-71
2022/07/14 05:42:55;;;;;;;18.87;5.07;;;;;;;;;;4997004;28;20057;-71
2022/07/14 05:45:20;;;;;;;24.45;5.55;;;;;;;;;;4995856;28;20026;-71
2022/07/14 05:47:45;;;;;;;27.40;6.07;;;;;;;;;;4998861;28;20508;-71
2022/07/14 05:50:10;;;;;;;23.27;5.30;;;;;;;;;;5002871;28;20421;-71
2022/07/14 05:52:35;;;;;;;22.83;5.33;;;;;;;;;;5001937;28;20025;-71
2022/07/14 05:55:01;;;;;;;19.30;5.03;;;;;;;;;;4998876;28;20022;-71
2022/07/14 05:57:26;;;;;;;18.38;3.90;;;;;;;;;;4998438;28;20306;-71
2022/07/14 05:59:51;;;;;;;21.13;4.28;;;;;;;;;;5001499;28;20026;-71
2022/07/14 06:02:17;;;;;;;21.23;4.53;;;;;;;;;;4999967;28;20145;-71
2022/07/14 06:04:42;;;;;;;16.13;4.95;;;;;;;;;;5001068;28;20547;-71
2022/07/14 06:07:08;;;;;;;16.25;3.90;;;;;;;;;;5001956;28;20030;-71
2022/07/14 06:09:37;;;;;;;15.27;3.78;;;;;;;;;;5001962;28;20029;-71
2022/07/14 06:12:06;;;;;;;12.00;3.97;;;;;;;;;;4996198;28;20089;-71
2022/07/14 06:14:31;;;;;;;14.10;3.70;;;;;;;;;;4998955;28;20464;-71
2022/07/14 06:16:56;;;;;;;17.27;3.95;;;;;;;;;;5000084;28;20014;-71
2022/07/14 06:19:21;;;;;;;14.55;3.92;;;;;;;;;;5001646;28;20139;-70
2022/07/14 06:21:46;;;;;;;21.20;5.10;;;;;;;;;;5004239;28;20038;-70
2022/07/14 06:24:12;;;;;;;14.63;4.22;;;;;;;;;;5004482;28;20022;-71
2022/07/14 06:26:37;;;;;;;25.73;4.57;;;;;;;;;;5004285;28;20065;-70
2022/07/14 06:29:02;;;;;;;20.17;4.63;;;;;;;;;;5006230;28;20452;-70
2022/07/14 06:31:29;;;;;;;12.73;4.03;;;;;;;;;;5003845;28;20041;-69
2022/07/14 06:33:54;;;;;;;16.40;4.45;;;;;;;;;;5002088;28;20580;-69
2022/07/14 06:36:20;;;;;;;23.60;5.03;;;;;;;;;;5010953;28;20033;-71
2022/07/14 06:38:45;;;;;;;10.27;4.45;;;;;;;;;;5007308;28;20092;-72
2022/07/14 06:41:10;;;;;;;15.27;5.00;;;;;;;;;;5007144;28;20109;-71
2022/07/14 06:43:35;;;;;;;21.00;4.57;;;;;;;;;;5005489;28;20120;-71
2022/07/14 06:46:01;;;;;;;19.60;4.83;;;;;;;;;;5010817;28;20021;-72
2022/07/14 06:48:26;;;;;;;18.27;4.93;;;;;;;;;;5011265;28;20268;-72
2022/07/14 06:50:51;;;;;;;20.07;4.67;;;;;;;;;;5008439;28;20029;-71
2022/07/14 06:53:17;;;;;;;12.03;4.30;;;;;;;;;;5001887;28;20041;-71
2022/07/14 06:55:42;;;;;;;20.20;4.43;;;;;;;;;;4997653;28;20022;-69
2022/07/14 06:58:07;;;;;;;15.13;3.77;;;;;;;;;;5002474;28;20818;-72
2022/07/14 07:00:32;;;;;;;18.88;3.70;;;;;;;;;;4996495;28;20022;-72
2022/07/14 07:02:57;;;;;;;15.52;3.85;;;;;;;;;;5001960;28;20060;-73
2022/07/14 07:08:06;;;;;;;19.25;4.40;;;;;;;;;;4998825;28;20459;-70
2022/07/14 07:10:32;;;;;;;14.10;3.83;;;;;;;;;;4999874;28;20029;-72
2022/07/14 07:12:59;;;;;;;14.95;4.55;;;;;;;;;;4996580;28;20045;-71
2022/07/14 07:15:24;;;;;;;12.98;4.55;;;;;;;;;;4998320;28;20456;-72
2022/07/14 07:17:49;;;;;;;16.40;4.13;;;;;;;;;;5001391;28;20024;-72
2022/07/14 07:20:15;;;;;;;13.93;3.83;;;;;;;;;;5000702;28;20041;-72
2022/07/14 07:22:40;;;;;;;15.85;4.32;;;;;;;;;;5001813;28;20291;-71
2022/07/14 07:25:06;;;;;;;13.70;3.73;;;;;;;;;;5007361;28;20048;-71
2022/07/14 07:27:32;;;;;;;19.63;4.50;;;;;;;;;;5005211;28;20299;-71
2022/07/14 07:30:00;;;;;;;15.55;3.88;;;;;;;;;;4998081;28;20022;-68
2022/07/14 07:32:26;;;;;;;17.65;3.53;;;;;;;;;;4997872;28;20025;-69
2022/07/14 07:34:52;;;;;;;16.80;3.75;;;;;;;;;;5008223;28;20073;-73
2022/07/14 07:37:17;;;;;;;12.33;3.07;;;;;;;;;;5002461;28;20029;-71
2022/07/14 07:39:42;;;;;;;16.97;5.10;;;;;;;;;;5004164;28;20057;-70
2022/07/14 07:42:07;;;;;;;16.47;3.40;;;;;;;;;;4998019;28;20029;-71
2022/07/14 07:44:32;;;;;;;12.52;3.53;;;;;;;;;;4995246;28;20034;-72
2022/07/14 07:46:58;;;;;;;15.43;3.60;;;;;;;;;;4994888;28;20029;-71
2022/07/14 07:49:23;;;;;;;13.32;3.45;;;;;;;;;;4996681;28;20072;-71
2022/07/14 07:51:48;;;;;;;13.90;3.00;;;;;;;;;;5001976;28;20053;-72
2022/07/14 07:54:14;;;;;;;15.73;3.38;;;;;;;;;;5006212;28;20271;-69
2022/07/14 07:56:39;;;;;;;10.63;3.67;;;;;;;;;;5003959;28;20475;-72
2022/07/14 07:59:04;;;;;;;14.23;2.80;;;;;;;;;;5005399;28;20041;-75
2022/07/14 08:01:29;;;;;;;20.05;3.30;;;;;;;;;;5000100;28;20294;-72
2022/07/14 08:03:54;;;;;;;15.83;3.07;;;;;;;;;;5002967;28;20040;-70
2022/07/14 08:06:19;;;;;;;7.53;2.53;;;;;;;;;;5003833;28;20099;-71
2022/07/14 08:08:45;;;;;;;16.80;2.90;;;;;;;;;;5011410;28;20041;-70
2022/07/14 08:11:10;;;;;;;13.90;2.77;;;;;;;;;;5007153;28;20029;-71
2022/07/14 08:13:35;;;;;;;12.13;2.60;;;;;;;;;;4997991;28;20033;-71
2022/07/14 08:16:00;;;;;;;9.63;2.47;;;;;;;;;;5002038;28;20025;-71
2022/07/14 08:18:25;;;;;;;11.93;2.87;;;;;;;;;;5006993;28;20022;-71
2022/07/14 08:20:52;;;;;;;14.90;3.07;;;;;;;;;;5010328;28;20274;-71
2022/07/14 08:23:17;;;;;;;13.43;3.90;;;;;;;;;;5000321;28;20036;-71
2022/07/14 08:25:42;;;;;;;12.63;2.80;;;;;;;;;;5005931;28;20026;-71
2022/07/14 08:28:08;;;;;;;16.23;2.58;;;;;;;;;;5007251;28;20055;-71
2022/07/14 08:30:33;;;;;;;29.52;3.83;;;;;;;;;;5004033;28;20065;-72
2022/07/14 08:32:58;;;;;;;11.10;2.40;;;;;;;;;;4998316;28;20026;-70
2022/07/14 08:35:24;;;;;;;15.57;3.00;;;;;;;;;;5001448;28;20294;-72
2022/07/14 08:37:49;;;;;;;12.38;2.80;;;;;;;;;;5003528;28;20266;-70
2022/07/14 08:40:16;;;;;;;14.07;2.80;;;;;;;;;;5002454;28;20406;-71
2022/07/14 08:42:45;;;;;;;18.35;2.95;;;;;;;;;;5005876;28;20460;-71
2022/07/14 08:45:12;;;;;;;14.93;2.38;;;;;;;;;;4999765;28;20041;-72
2022/07/14 08:47:37;;;;;;;12.70;2.85;;;;;;;;;;5007125;28;20029;-71
2022/07/14 08:50:04;;;;;;;15.95;2.70;;;;;;;;;;5005006;28;20048;-70
2022/07/14 08:52:29;;;;;;;12.10;2.63;;;;;;;;;;5005928;28;20033;-69
2022/07/14 08:54:55;;;;;;;6.63;2.58;;;;;;;;;;4994237;28;20025;-71
2022/07/14 08:57:20;;;;;;;8.85;2.40;;;;;;;;;;5001215;28;20037;-70
2022/07/14 08:59:45;;;;;;;13.30;2.50;;;;;;;;;;5006050;28;20139;-70
2022/07/14 09:02:10;;;;;;;10.10;2.23;;;;;;;;;;5001005;28;20029;-70
2022/07/14 09:04:36;;;;;;;11.80;2.58;;;;;;;;;;4999168;28;20275;-71
2022/07/14 09:07:01;;;;;;;8.33;2.53;;;;;;;;;;5005020;28;20418;-70
2022/07/14 09:09:27;;;;;;;14.23;2.77;;;;;;;;;;5006912;28;20358;-69
2022/07/14 09:11:52;;;;;;;18.92;3.08;;;;;;;;;;4996919;28;20499;-69
2022/07/14 09:14:17;;;;;;;13.80;2.50;;;;;;;;;;5004026;28;20460;-70
2022/07/14 09:16:43;;;;;;;12.20;2.53;;;;;;;;;;5000895;28;20349;-69
2022/07/14 09:19:09;;;;;;;8.00;2.42;;;;;;;;;;5005817;28;20530;-70
2022/07/14 09:21:37;;;;;;;10.15;2.33;;;;;;;;;;5002648;28;20033;-69
2022/07/14 09:24:04;;;;;;;12.50;2.03;;;;;;;;;;5002258;28;20128;-68
2022/07/14 09:26:29;;;;;;;18.02;2.58;;;;;;;;;;4997051;28;20429;-70
2022/07/14 09:28:55;;;;;;;13.43;2.50;;;;;;;;;;4999701;28;20108;-70
2022/07/14 09:31:27;;;;;;;11.35;2.35;;;;;;;;;;5005197;28;20267;-69
2022/07/14 09:33:55;;;;;;;22.42;3.05;;;;;;;;;;5007185;28;20025;-71
2022/07/14 09:36:26;;;;;;;11.30;2.05;;;;;;;;;;5002969;28;20151;-70
2022/07/14 09:38:52;;;;;;;13.48;3.33;;;;;;;;;;5005602;28;20121;-70
2022/07/14 09:41:17;;;;;;;14.90;2.40;;;;;;;;;;5003777;28;20511;-69
2022/07/14 09:44:02;;;;;;;6.27;2.10;;;;;;;;;;5004990;28;20068;-71
2022/07/14 09:46:56;;;;;;;14.20;2.30;;;;;;;;;;4994713;28;20057;-70
2022/07/14 09:49:23;;;;;;;14.23;2.55;;;;;;;;;;4991430;28;20033;-67
2022/07/14 09:52:02;;;;;;;11.15;2.25;;;;;;;;;;4998700;28;20042;-68
2022/07/14 09:54:45;;;;;;;17.73;2.70;;;;;;;;;;4997401;28;20105;-68
2022/07/14 09:57:13;;;;;;;8.93;2.47;;;;;;;;;;4996896;28;20461;-70
2022/07/14 09:59:45;;;;;;;9.98;2.22;;;;;;;;;;5010899;28;20040;-70
2022/07/14 10:02:15;;;;;;;11.68;2.30;;;;;;;;;;5005259;28;20057;-71
2022/07/14 10:04:40;;;;;;;16.73;3.15;;;;;;;;;;5003470;28;20041;-69
2022/07/14 10:07:05;;;;;;;9.43;2.30;;;;;;;;;;5003519;28;20022;-68
2022/07/14 10:09:32;;;;;;;11.33;2.70;;;;;;;;;;5003039;28;20465;-69
2022/07/14 10:12:00;;;;;;;7.28;1.98;;;;;;;;;;4997088;28;20785;-69
2022/07/14 10:14:25;;;;;;;7.00;2.17;;;;;;;;;;4996427;28;20811;-69
2022/07/14 10:16:50;;;;;;;7.50;2.30;;;;;;;;;;5000823;28;20014;-68
2022/07/14 10:19:17;;;;;;;16.80;2.97;;;;;;;;;;5008738;28;20072;-70
2022/07/14 10:21:45;;;;;;;10.30;2.65;;;;;;;;;;4997059;28;20027;-69
2022/07/14 10:24:11;;;;;;;8.70;2.58;;;;;;;;;;4997035;28;20129;-70
2022/07/14 10:26:36;;;;;;;6.97;2.50;;;;;;;;;;4964930;28;1068142;-68
2022/07/14 10:29:03;;;;;;;9.02;2.10;;;;;;;;;;4999027;28;20021;-69
2022/07/14 10:31:36;;;;;;;6.38;2.25;;;;;;;;;;5001894;28;20123;-69
2022/07/14 10:34:23;;;;;;;8.50;2.40;;;;;;;;;;4997091;28;20029;-69
2022/07/14 10:36:57;;;;;;;8.55;2.70;;;;;;;;;;5004347;28;20022;-69
2022/07/14 10:39:34;;;;;;;15.27;4.00;;;;;;;;;;5000808;28;20025;-72
2022/07/14 10:42:03;;;;;;;18.98;5.38;;;;;;;;;;5000248;28;20026;-69
2022/07/14 10:44:30;;;;;;;25.17;3.63;;;;;;;;;;4998102;28;20469;-69
2022/07/14 10:47:05;;;;;;;16.23;4.57;;;;;;;;;;5009436;28;20089;-69
2022/07/14 10:49:30;;;;;;;10.23;2.67;;;;;;;;;;5003713;28;20125;-70
2022/07/14 10:51:56;;;;;;;10.60;2.92;;;;;;;;;;4999164;28;20109;-70
2022/07/14 10:54:21;;;;;;;8.60;2.47;;;;;;;;;;5010004;28;20591;-69
2022/07/14 10:56:46;;;;;;;9.07;2.97;;;;;;;;;;5000017;28;20029;-70
2022/07/14 10:59:26;;;;;;;10.33;3.33;;;;;;;;;;5006505;28;20029;-69
2022/07/14 11:02:20;;;;;;;11.90;3.63;;;;;;;;;;5002116;28;20275;-69
2022/07/14 11:05:04;;;;;;;12.60;3.17;;;;;;;;;;5000602;28;20022;-69
2022/07/14 11:07:34;;;;;;;8.15;2.95;;;;;;;;;;5005478;28;20037;-69
2022/07/14 11:09:59;;;;;;;12.35;2.92;;;;;;;;;;5006750;28;20060;-68
2022/07/14 11:12:24;;;;;;;12.73;3.27;;;;;;;;;;5001645;28;20119;-69
2022/07/14 11:14:49;;;;;;;15.00;3.57;;;;;;;;;;5004092;28;20500;-74
2022/07/14 11:17:32;;;;;;;13.63;2.87;;;;;;;;;;5006692;28;20014;-71
2022/07/14 11:19:58;;;;;;;7.28;2.78;;;;;;;;;;5005194;28;20267;-69
2022/07/14 11:22:24;;;;;;;8.47;2.87;;;;;;;;;;5000251;28;20559;-69
2022/07/14 11:24:53;;;;;;;8.65;2.92;;;;;;;;;;5001704;28;20026;-69
2022/07/14 11:27:25;;;;;;;12.02;3.50;;;;;;;;;;5004743;28;20025;-69
2022/07/14 11:29:51;;;;;;;9.82;2.58;;;;;;;;;;4999271;28;20436;-69
2022/07/14 11:32:31;;;;;;;13.37;4.03;;;;;;;;;;5003853;28;20026;-69
2022/07/14 11:37:57;;;;;;;11.98;3.65;;;;;;;;;;5003718;28;20024;-68
2022/07/14 11:40:44;;;;;;;17.47;3.87;;;;;;;;;;5002268;28;20156;-68
2022/07/14 11:43:28;;;;;;;10.88;3.50;;;;;;;;;;5005562;28;20112;-68
2022/07/14 11:45:54;;;;;;;10.60;3.58;;;;;;;;;;5002657;28;20110;-68
2022/07/14 11:48:20;;;;;;;11.45;3.55;;;;;;;;;;5009702;28;20117;-68
2022/07/14 11:50:45;;;;;;;14.30;3.42;;;;;;;;;;5005149;28;20029;-68
2022/07/14 11:53:10;;;;;;;19.53;5.10;;;;;;;;;;5001929;28;20085;-68
2022/07/14 11:55:37;;;;;;;11.95;3.92;;;;;;;;;;4995940;28;20096;-68
2022/07/14 11:58:03;;;;;;;14.65;3.35;;;;;;;;;;5003906;28;20022;-68
2022/07/14 12:00:28;;;;;;;10.80;3.60;;;;;;;;;;4995559;28;20076;-69
2022/07/14 12:02:54;;;;;;;11.17;3.53;;;;;;;;;;5002674;28;20092;-69
2022/07/14 12:05:24;;;;;;;11.40;4.05;;;;;;;;;;5000971;28;20263;-68
2022/07/14 12:07:50;;;;;;;18.15;3.90;;;;;;;;;;4997413;28;20067;-69
2022/07/14 12:10:32;;;;;;;10.40;3.65;;;;;;;;;;4998530;28;20053;-68
2022/07/14 12:12:57;;;;;;;11.75;2.97;;;;;;;;;;5000177;28;20045;-68
2022/07/14 12:15:23;;;;;;;10.20;3.15;;;;;;;;;;5001347;28;20125;-68
2022/07/14 12:17:49;;;;;;;10.98;3.35;;;;;;;;;;5004441;28;20014;-68
2022/07/14 12:20:15;;;;;;;15.55;3.33;;;;;;;;;;5007897;28;20080;-67
2022/07/14 12:22:56;;;;;;;11.00;3.50;;;;;;;;;;5000147;28;20025;-68
2022/07/14 12:25:27;;;;;;;16.00;3.70;;;;;;;;;;5002667;28;20022;-68
2022/07/14 12:27:53;;;;;;;12.52;3.45;;;;;;;;;;5007227;28;20030;-68
2022/07/14 12:30:19;;;;;;;17.80;3.78;;;;;;;;;;5003104;28;20109;-68
2022/07/14 12:32:45;;;;;;;14.23;3.20;;;;;;;;;;5006880;28;20098;-68
2022/07/14 12:35:10;;;;;;;8.55;3.17;;;;;;;;;;5003385;28;20026;-68
2022/07/14 12:37:36;;;;;;;8.73;3.40;;;;;;;;;;4997986;28;20034;-68
2022/07/14 12:40:01;;;;;;;13.75;3.67;;;;;;;;;;4998839;28;20021;-68
2022/07/14 12:42:27;;;;;;;11.95;4.03;;;;;;;;;;5008240;28;20667;-68
2022/07/14 12:45:02;;;;;;;12.60;3.65;;;;;;;;;;4993291;28;20032;-68
2022/07/14 12:47:28;;;;;;;11.77;3.67;;;;;;;;;;5001493;28;20105;-68
2022/07/14 12:49:53;;;;;;;9.32;3.45;;;;;;;;;;5004158;28;20105;-68
2022/07/14 12:52:18;;;;;;;12.55;3.45;;;;;;;;;;5004587;28;20021;-68
2022/07/14 12:54:43;;;;;;;14.13;4.00;;;;;;;;;;5006865;28;20028;-68
2022/07/14 12:57:19;;;;;;;15.77;4.17;;;;;;;;;;4999865;28;20015;-68
2022/07/14 12:59:44;;;;;;;10.48;3.22;;;;;;;;;;5000167;28;20528;-68
2022/07/14 13:02:10;;;;;;;16.95;3.40;;;;;;;;;;5002474;28;20032;-68
2022/07/14 13:04:41;;;;;;;9.98;3.83;;;;;;;;;;5005566;28;20537;-68
2022/07/14 13:07:15;;;;;;;25.30;4.32;;;;;;;;;;5006746;28;20487;-68
2022/07/14 13:10:00;;;;;;;12.60;3.75;;;;;;;;;;5004428;28;20029;-68
2022/07/14 13:12:27;;;;;;;17.40;3.53;;;;;;;;;;5008498;28;20376;-67
2022/07/14 13:14:56;;;;;;;22.75;4.15;;;;;;;;;;5004215;28;20024;-67
2022/07/14 13:17:41;;;;;;;16.88;4.18;;;;;;;;;;4996355;28;20018;-67
2022/07/14 13:20:26;;;;;;;14.02;3.58;;;;;;;;;;5009013;28;20034;-67
2022/07/14 13:22:55;;;;;;;11.68;3.13;;;;;;;;;;5005570;28;20049;-68
2022/07/14 13:25:20;;;;;;;10.93;3.15;;;;;;;;;;4997578;28;20076;-66
2022/07/14 13:27:46;;;;;;;10.77;3.58;;;;;;;;;;5000968;28;20446;-68
2022/07/14 13:30:12;;;;;;;12.45;3.58;;;;;;;;;;4998993;28;20364;-68
2022/07/14 13:32:37;;;;;;;12.95;3.50;;;;;;;;;;5002072;28;20014;-68
2022/07/14 13:35:02;;;;;;;15.37;4.07;;;;;;;;;;5007357;28;20026;-68
2022/07/14 13:37:27;;;;;;;14.38;3.35;;;;;;;;;;5005158;28;20029;-68
2022/07/14 13:39:53;;;;;;;13.13;3.37;;;;;;;;;;5002842;28;20476;-69
2022/07/14 13:42:18;;;;;;;15.52;3.50;;;;;;;;;;5004908;28;20035;-69
2022/07/14 13:44:43;;;;;;;13.07;3.97;;;;;;;;;;4998996;28;20025;-69
2022/07/14 13:47:08;;;;;;;18.80;4.07;;;;;;;;;;4998796;28;20030;-71
2022/07/14 13:52:07;;;;;;;15.40;3.50;;;;;;;;;;4998549;28;20473;-70
2022/07/14 13:52:18;;;;;;;14.38;4.13;;;;;;;;;;5006541;28;20298;-70
2022/07/14 13:54:44;;;;;;;9.63;3.75;;;;;;;;;;5000514;28;20054;-70
2022/07/14 13:57:09;;;;;;;14.50;3.70;;;;;;;;;;4995718;28;20019;-68
2022/07/14 13:59:34;;;;;;;10.33;3.70;;;;;;;;;;4992929;28;20605;-72
2022/07/14 14:01:59;;;;;;;12.23;3.47;;;;;;;;;;4999154;28;20101;-73
2022/07/14 14:04:25;;;;;;;10.40;3.43;;;;;;;;;;5003610;28;20025;-71
2022/07/14 14:06:50;;;;;;;14.93;3.22;;;;;;;;;;4997141;28;20456;-76
2022/07/14 14:09:16;;;;;;;9.93;3.43;;;;;;;;;;5005798;28;20033;-71
2022/07/14 14:11:42;;;;;;;18.85;4.30;;;;;;;;;;5009624;28;20345;-71
2022/07/14 14:14:08;;;;;;;15.40;4.20;;;;;;;;;;5011843;28;20022;-71
2022/07/14 14:16:33;;;;;;;10.38;4.30;;;;;;;;;;5010558;28;20068;-72
2022/07/14 14:18:58;;;;;;;23.58;4.47;;;;;;;;;;5014393;28;20469;-72
2022/07/14 14:21:24;;;;;;;9.63;3.80;;;;;;;;;;5009365;28;20038;-74
2022/07/14 14:23:49;;;;;;;17.98;4.15;;;;;;;;;;5006821;28;20299;-71
2022/07/14 14:26:14;;;;;;;27.97;4.27;;;;;;;;;;5009483;28;20025;-71
2022/07/14 14:28:40;;;;;;;10.83;4.13;;;;;;;;;;5006735;28;20070;-71
2022/07/14 14:31:05;;;;;;;10.00;3.83;;;;;;;;;;5009599;28;20017;-71
2022/07/14 14:33:31;;;;;;;9.18;4.72;;;;;;;;;;5010410;28;20022;-71
2022/07/14 14:35:56;;;;;;;9.00;4.10;;;;;;;;;;5008857;28;20467;-71
2022/07/14 14:38:21;;;;;;;17.05;4.40;;;;;;;;;;5006598;28;20026;-70
2022/07/14 14:40:47;;;;;;;15.80;4.27;;;;;;;;;;5002742;28;20054;-70